Fredericksbg, Texas
Current Conditions -  °F | °C
As of 1:55 AM on Monday 24 Nov 2014 (Local Time) from KT82 Reporting Station
Clear Clear  
Wind Chill: 42°   Ceiling: Unl
Heat Index: 44°   Visibility: 10mi
Dew Point: 35°   Wind: 5mph
Humidity: 69%   Direction: 350°N
Pressure: 29.93"   Gusts: NA
Location:  30.3069°N, 98.8978°W
Report Text: KT82 240755Z AUTO 35004KT 10SM CLR 07/02 A2993 RMK AO2 T00680015
Loading
Personal Weather Stations






























Interactive Weather Map New forecast layout! Learn more

10-Day Weather Forecast

Advertisements
Track Severe Weather on mobile